sensor_id;sensor_type;location;lat;lon;timestamp;P1;durP1;ratioP1;P2;durP2;ratioP2
10605;SDS011;5350;42.698;23.148;2022-11-15T00:00:04;62.07;;;44.00;;
10605;SDS011;5350;42.698;23.148;2022-11-15T00:02:31;49.33;;;29.50;;
10605;SDS011;5350;42.698;23.148;2022-11-15T00:04:58;40.47;;;25.13;;
10605;SDS011;5350;42.698;23.148;2022-11-15T00:07:26;39.10;;;24.20;;
10605;SDS011;5350;42.698;23.148;2022-11-15T00:09:53;42.70;;;26.27;;
10605;SDS011;5350;42.698;23.148;2022-11-15T00:12:19;32.20;;;21.00;;
10605;SDS011;5350;42.698;23.148;2022-11-15T00:14:46;33.33;;;21.53;;
10605;SDS011;5350;42.698;23.148;2022-11-15T00:17:13;41.33;;;23.43;;
10605;SDS011;5350;42.698;23.148;2022-11-15T00:19:39;41.23;;;23.90;;
10605;SDS011;5350;42.698;23.148;2022-11-15T00:22:06;40.87;;;23.60;;
10605;SDS011;5350;42.698;23.148;2022-11-15T00:24:34;43.40;;;24.70;;
10605;SDS011;5350;42.698;23.148;2022-11-15T00:27:01;40.20;;;24.10;;
10605;SDS011;5350;42.698;23.148;2022-11-15T00:29:27;43.87;;;26.20;;
10605;SDS011;5350;42.698;23.148;2022-11-15T00:31:54;43.73;;;26.00;;
10605;SDS011;5350;42.698;23.148;2022-11-15T00:34:21;47.40;;;27.17;;
10605;SDS011;5350;42.698;23.148;2022-11-15T00:36:47;52.40;;;28.97;;
10605;SDS011;5350;42.698;23.148;2022-11-15T00:39:14;52.43;;;29.10;;
10605;SDS011;5350;42.698;23.148;2022-11-15T00:41:42;57.87;;;34.10;;
10605;SDS011;5350;42.698;23.148;2022-11-15T00:44:09;57.60;;;34.23;;
10605;SDS011;5350;42.698;23.148;2022-11-15T00:46:35;55.33;;;32.40;;
10605;SDS011;5350;42.698;23.148;2022-11-15T00:49:02;64.83;;;38.57;;
10605;SDS011;5350;42.698;23.148;2022-11-15T00:51:29;64.40;;;36.37;;
10605;SDS011;5350;42.698;23.148;2022-11-15T00:53:55;58.57;;;34.33;;
10605;SDS011;5350;42.698;23.148;2022-11-15T00:56:22;58.47;;;32.37;;
10605;SDS011;5350;42.698;23.148;2022-11-15T00:58:50;54.63;;;32.53;;
10605;SDS011;5350;42.698;23.148;2022-11-15T01:01:17;58.37;;;34.10;;
10605;SDS011;5350;42.698;23.148;2022-11-15T01:03:43;68.87;;;38.73;;
10605;SDS011;5350;42.698;23.148;2022-11-15T01:06:10;162.73;;;87.20;;
10605;SDS011;5350;42.698;23.148;2022-11-15T01:08:37;60.87;;;34.07;;
10605;SDS011;5350;42.698;23.148;2022-11-15T01:11:06;85.17;;;47.57;;
10605;SDS011;5350;42.698;23.148;2022-11-15T01:13:35;64.57;;;34.17;;
10605;SDS011;5350;42.698;23.148;2022-11-15T01:16:08;62.40;;;32.93;;
10605;SDS011;5350;42.698;23.148;2022-11-15T01:18:36;51.67;;;30.63;;
10605;SDS011;5350;42.698;23.148;2022-11-15T01:21:06;53.70;;;30.77;;
10605;SDS011;5350;42.698;23.148;2022-11-15T01:23:34;51.17;;;30.47;;
10605;SDS011;5350;42.698;23.148;2022-11-15T01:26:01;55.23;;;30.23;;
10605;SDS011;5350;42.698;23.148;2022-11-15T01:28:30;49.03;;;29.33;;
10605;SDS011;5350;42.698;23.148;2022-11-15T01:30:57;53.27;;;31.23;;
10605;SDS011;5350;42.698;23.148;2022-11-15T01:33:26;51.07;;;29.33;;
10605;SDS011;5350;42.698;23.148;2022-11-15T01:35:53;51.50;;;30.30;;
10605;SDS011;5350;42.698;23.148;2022-11-15T01:38:21;52.30;;;30.03;;
10605;SDS011;5350;42.698;23.148;2022-11-15T01:40:48;54.47;;;29.77;;
10605;SDS011;5350;42.698;23.148;2022-11-15T01:43:19;50.17;;;28.50;;
10605;SDS011;5350;42.698;23.148;2022-11-15T01:45:46;51.30;;;29.27;;
10605;SDS011;5350;42.698;23.148;2022-11-15T01:48:18;56.30;;;31.07;;
10605;SDS011;5350;42.698;23.148;2022-11-15T01:50:47;62.07;;;30.37;;
10605;SDS011;5350;42.698;23.148;2022-11-15T01:53:16;54.67;;;29.97;;
10605;SDS011;5350;42.698;23.148;2022-11-15T01:55:46;57.80;;;29.83;;
10605;SDS011;5350;42.698;23.148;2022-11-15T01:58:12;56.03;;;31.13;;
10605;SDS011;5350;42.698;23.148;2022-11-15T02:00:39;49.30;;;28.77;;
10605;SDS011;5350;42.698;23.148;2022-11-15T02:03:06;53.53;;;28.77;;
10605;SDS011;5350;42.698;23.148;2022-11-15T02:05:33;48.17;;;28.47;;
10605;SDS011;5350;42.698;23.148;2022-11-15T02:08:02;50.63;;;28.43;;
10605;SDS011;5350;42.698;23.148;2022-11-15T02:10:29;51.20;;;28.87;;
10605;SDS011;5350;42.698;23.148;2022-11-15T02:12:56;51.93;;;28.87;;
10605;SDS011;5350;42.698;23.148;2022-11-15T02:15:27;51.37;;;28.20;;
10605;SDS011;5350;42.698;23.148;2022-11-15T02:18:09;52.13;;;27.77;;
10605;SDS011;5350;42.698;23.148;2022-11-15T02:20:42;52.53;;;29.37;;
10605;SDS011;5350;42.698;23.148;2022-11-15T02:26:22;52.73;;;29.90;;
10605;SDS011;5350;42.698;23.148;2022-11-15T02:29:03;56.20;;;34.87;;
10605;SDS011;5350;42.698;23.148;2022-11-15T02:31:39;47.93;;;28.10;;
10605;SDS011;5350;42.698;23.148;2022-11-15T02:34:14;45.47;;;26.60;;
10605;SDS011;5350;42.698;23.148;2022-11-15T02:36:49;48.27;;;28.10;;
10605;SDS011;5350;42.698;23.148;2022-11-15T02:39:28;54.73;;;33.30;;
10605;SDS011;5350;42.698;23.148;2022-11-15T02:42:02;48.53;;;28.33;;
10605;SDS011;5350;42.698;23.148;2022-11-15T02:44:53;46.43;;;26.93;;
10605;SDS011;5350;42.698;23.148;2022-11-15T02:47:23;57.40;;;32.00;;
10605;SDS011;5350;42.698;23.148;2022-11-15T02:49:54;43.80;;;27.83;;
10605;SDS011;5350;42.698;23.148;2022-11-15T02:52:25;41.23;;;25.43;;
10605;SDS011;5350;42.698;23.148;2022-11-15T02:54:53;48.10;;;26.33;;
10605;SDS011;5350;42.698;23.148;2022-11-15T02:57:21;46.03;;;26.30;;
10605;SDS011;5350;42.698;23.148;2022-11-15T03:00:03;43.67;;;26.33;;
10605;SDS011;5350;42.698;23.148;2022-11-15T03:02:38;46.33;;;26.67;;
10605;SDS011;5350;42.698;23.148;2022-11-15T03:05:19;47.00;;;28.10;;
10605;SDS011;5350;42.698;23.148;2022-11-15T03:07:53;42.80;;;25.73;;
10605;SDS011;5350;42.698;23.148;2022-11-15T03:10:24;43.60;;;25.23;;
10605;SDS011;5350;42.698;23.148;2022-11-15T03:12:58;37.73;;;22.00;;
10605;SDS011;5350;42.698;23.148;2022-11-15T03:15:36;40.23;;;23.50;;
10605;SDS011;5350;42.698;23.148;2022-11-15T03:18:10;41.00;;;22.77;;
10605;SDS011;5350;42.698;23.148;2022-11-15T03:20:42;38.77;;;21.83;;
10605;SDS011;5350;42.698;23.148;2022-11-15T03:23:11;35.33;;;21.80;;
10605;SDS011;5350;42.698;23.148;2022-11-15T03:25:40;34.40;;;21.23;;
10605;SDS011;5350;42.698;23.148;2022-11-15T03:28:10;35.67;;;21.97;;
10605;SDS011;5350;42.698;23.148;2022-11-15T03:30:41;38.30;;;22.07;;
10605;SDS011;5350;42.698;23.148;2022-11-15T03:33:12;36.43;;;23.20;;
10605;SDS011;5350;42.698;23.148;2022-11-15T03:35:41;42.37;;;23.70;;
10605;SDS011;5350;42.698;23.148;2022-11-15T03:38:11;40.80;;;24.10;;
10605;SDS011;5350;42.698;23.148;2022-11-15T03:40:44;41.83;;;25.07;;
10605;SDS011;5350;42.698;23.148;2022-11-15T03:43:19;40.97;;;24.77;;
10605;SDS011;5350;42.698;23.148;2022-11-15T03:45:51;39.50;;;24.53;;
10605;SDS011;5350;42.698;23.148;2022-11-15T03:48:24;41.97;;;23.70;;
10605;SDS011;5350;42.698;23.148;2022-11-15T03:50:53;47.43;;;27.13;;
10605;SDS011;5350;42.698;23.148;2022-11-15T03:53:21;83.00;;;43.83;;
10605;SDS011;5350;42.698;23.148;2022-11-15T03:55:47;59.57;;;33.37;;
10605;SDS011;5350;42.698;23.148;2022-11-15T03:58:14;65.50;;;37.30;;
10605;SDS011;5350;42.698;23.148;2022-11-15T04:00:41;48.37;;;28.57;;
10605;SDS011;5350;42.698;23.148;2022-11-15T04:03:07;47.90;;;27.83;;
10605;SDS011;5350;42.698;23.148;2022-11-15T04:05:36;44.13;;;25.77;;
10605;SDS011;5350;42.698;23.148;2022-11-15T04:08:02;41.17;;;23.13;;
10605;SDS011;5350;42.698;23.148;2022-11-15T04:10:29;37.43;;;22.40;;
10605;SDS011;5350;42.698;23.148;2022-11-15T04:12:56;41.87;;;24.73;;
10605;SDS011;5350;42.698;23.148;2022-11-15T04:15:23;41.97;;;24.30;;
10605;SDS011;5350;42.698;23.148;2022-11-15T04:17:51;42.37;;;24.37;;
10605;SDS011;5350;42.698;23.148;2022-11-15T04:20:20;41.23;;;25.60;;
10605;SDS011;5350;42.698;23.148;2022-11-15T04:23:09;57.63;;;32.33;;
10605;SDS011;5350;42.698;23.148;2022-11-15T04:25:54;61.20;;;34.73;;
10605;SDS011;5350;42.698;23.148;2022-11-15T04:28:22;48.50;;;26.90;;
10605;SDS011;5350;42.698;23.148;2022-11-15T04:30:49;53.87;;;30.10;;
10605;SDS011;5350;42.698;23.148;2022-11-15T04:33:15;47.57;;;26.50;;
10605;SDS011;5350;42.698;23.148;2022-11-15T04:35:42;48.10;;;27.93;;
10605;SDS011;5350;42.698;23.148;2022-11-15T04:38:31;49.80;;;30.40;;
10605;SDS011;5350;42.698;23.148;2022-11-15T04:40:56;47.43;;;29.33;;
10605;SDS011;5350;42.698;23.148;2022-11-15T04:43:23;45.23;;;27.57;;
10605;SDS011;5350;42.698;23.148;2022-11-15T04:45:50;49.83;;;28.07;;
10605;SDS011;5350;42.698;23.148;2022-11-15T04:48:16;50.60;;;28.20;;
10605;SDS011;5350;42.698;23.148;2022-11-15T04:50:43;46.87;;;25.67;;
10605;SDS011;5350;42.698;23.148;2022-11-15T04:53:10;63.00;;;25.90;;
10605;SDS011;5350;42.698;23.148;2022-11-15T04:55:38;47.40;;;26.67;;
10605;SDS011;5350;42.698;23.148;2022-11-15T04:58:04;51.17;;;25.00;;
10605;SDS011;5350;42.698;23.148;2022-11-15T05:00:31;144.20;;;28.67;;
10605;SDS011;5350;42.698;23.148;2022-11-15T05:02:58;114.63;;;31.87;;
10605;SDS011;5350;42.698;23.148;2022-11-15T05:05:42;111.77;;;28.37;;
10605;SDS011;5350;42.698;23.148;2022-11-15T05:08:09;62.73;;;27.47;;
10605;SDS011;5350;42.698;23.148;2022-11-15T05:10:35;83.83;;;29.50;;
10605;SDS011;5350;42.698;23.148;2022-11-15T05:13:03;110.47;;;30.80;;
10605;SDS011;5350;42.698;23.148;2022-11-15T05:15:30;63.10;;;29.17;;
10605;SDS011;5350;42.698;23.148;2022-11-15T05:17:57;61.07;;;32.07;;
10605;SDS011;5350;42.698;23.148;2022-11-15T05:20:25;62.37;;;29.93;;
10605;SDS011;5350;42.698;23.148;2022-11-15T05:22:52;199.00;;;30.80;;
10605;SDS011;5350;42.698;23.148;2022-11-15T05:25:19;554.90;;;44.17;;
10605;SDS011;5350;42.698;23.148;2022-11-15T05:27:46;671.53;;;47.33;;
10605;SDS011;5350;42.698;23.148;2022-11-15T05:30:14;673.03;;;44.13;;
10605;SDS011;5350;42.698;23.148;2022-11-15T05:32:42;757.07;;;48.67;;
10605;SDS011;5350;42.698;23.148;2022-11-15T05:35:10;305.47;;;36.97;;
10605;SDS011;5350;42.698;23.148;2022-11-15T05:37:43;425.37;;;33.70;;
10605;SDS011;5350;42.698;23.148;2022-11-15T05:40:10;357.10;;;35.60;;
10605;SDS011;5350;42.698;23.148;2022-11-15T05:42:37;493.00;;;39.40;;
10605;SDS011;5350;42.698;23.148;2022-11-15T05:45:04;567.20;;;41.30;;
10605;SDS011;5350;42.698;23.148;2022-11-15T05:47:34;513.87;;;41.53;;
10605;SDS011;5350;42.698;23.148;2022-11-15T05:50:04;486.73;;;40.17;;
10605;SDS011;5350;42.698;23.148;2022-11-15T05:52:32;358.97;;;32.07;;
10605;SDS011;5350;42.698;23.148;2022-11-15T05:55:03;702.77;;;52.43;;
10605;SDS011;5350;42.698;23.148;2022-11-15T05:57:33;618.97;;;46.97;;
10605;SDS011;5350;42.698;23.148;2022-11-15T06:00:00;580.40;;;44.77;;
10605;SDS011;5350;42.698;23.148;2022-11-15T06:02:27;482.10;;;39.87;;
10605;SDS011;5350;42.698;23.148;2022-11-15T06:04:55;778.43;;;47.87;;
10605;SDS011;5350;42.698;23.148;2022-11-15T06:07:22;712.00;;;43.50;;
10605;SDS011;5350;42.698;23.148;2022-11-15T06:09:49;298.10;;;29.53;;
10605;SDS011;5350;42.698;23.148;2022-11-15T06:12:15;345.20;;;32.33;;
10605;SDS011;5350;42.698;23.148;2022-11-15T06:14:42;633.93;;;43.47;;
10605;SDS011;5350;42.698;23.148;2022-11-15T06:17:09;307.50;;;30.33;;
10605;SDS011;5350;42.698;23.148;2022-11-15T06:19:35;396.97;;;36.90;;
10605;SDS011;5350;42.698;23.148;2022-11-15T06:22:03;224.43;;;29.70;;
10605;SDS011;5350;42.698;23.148;2022-11-15T06:24:30;567.03;;;44.20;;
10605;SDS011;5350;42.698;23.148;2022-11-15T06:26:57;243.97;;;28.23;;
10605;SDS011;5350;42.698;23.148;2022-11-15T06:29:24;588.17;;;44.73;;
10605;SDS011;5350;42.698;23.148;2022-11-15T06:31:50;309.57;;;29.43;;
10605;SDS011;5350;42.698;23.148;2022-11-15T06:34:17;551.37;;;40.90;;
10605;SDS011;5350;42.698;23.148;2022-11-15T06:36:44;599.77;;;44.10;;
10605;SDS011;5350;42.698;23.148;2022-11-15T06:39:12;605.33;;;44.40;;
10605;SDS011;5350;42.698;23.148;2022-11-15T06:41:39;431.50;;;36.50;;
10605;SDS011;5350;42.698;23.148;2022-11-15T06:44:05;448.70;;;36.03;;
10605;SDS011;5350;42.698;23.148;2022-11-15T06:46:32;373.37;;;32.90;;
10605;SDS011;5350;42.698;23.148;2022-11-15T06:48:59;438.10;;;39.30;;
10605;SDS011;5350;42.698;23.148;2022-11-15T06:51:26;275.53;;;29.53;;
10605;SDS011;5350;42.698;23.148;2022-11-15T06:53:52;552.60;;;38.83;;
10605;SDS011;5350;42.698;23.148;2022-11-15T06:56:20;440.27;;;36.77;;
10605;SDS011;5350;42.698;23.148;2022-11-15T06:58:47;235.57;;;27.47;;
10605;SDS011;5350;42.698;23.148;2022-11-15T07:01:14;291.90;;;28.50;;
10605;SDS011;5350;42.698;23.148;2022-11-15T07:03:41;256.13;;;27.80;;
10605;SDS011;5350;42.698;23.148;2022-11-15T07:06:09;357.30;;;29.80;;
10605;SDS011;5350;42.698;23.148;2022-11-15T07:08:36;220.83;;;27.23;;
10605;SDS011;5350;42.698;23.148;2022-11-15T07:11:05;399.83;;;36.37;;
10605;SDS011;5350;42.698;23.148;2022-11-15T07:13:34;335.60;;;30.30;;
10605;SDS011;5350;42.698;23.148;2022-11-15T07:16:02;372.83;;;35.77;;
10605;SDS011;5350;42.698;23.148;2022-11-15T07:18:30;191.40;;;26.60;;
10605;SDS011;5350;42.698;23.148;2022-11-15T07:21:00;431.37;;;36.00;;
10605;SDS011;5350;42.698;23.148;2022-11-15T07:23:28;202.33;;;26.27;;
10605;SDS011;5350;42.698;23.148;2022-11-15T07:25:55;439.77;;;35.93;;
10605;SDS011;5350;42.698;23.148;2022-11-15T07:28:22;433.97;;;37.57;;
10605;SDS011;5350;42.698;23.148;2022-11-15T07:30:50;474.87;;;37.87;;
10605;SDS011;5350;42.698;23.148;2022-11-15T07:33:17;374.83;;;32.70;;
10605;SDS011;5350;42.698;23.148;2022-11-15T07:35:44;482.13;;;39.10;;
10605;SDS011;5350;42.698;23.148;2022-11-15T07:38:14;591.13;;;44.03;;
10605;SDS011;5350;42.698;23.148;2022-11-15T07:40:44;355.30;;;36.27;;
10605;SDS011;5350;42.698;23.148;2022-11-15T07:43:11;325.70;;;33.20;;
10605;SDS011;5350;42.698;23.148;2022-11-15T07:45:40;198.63;;;29.87;;
10605;SDS011;5350;42.698;23.148;2022-11-15T07:48:09;478.47;;;37.77;;
10605;SDS011;5350;42.698;23.148;2022-11-15T07:50:36;313.60;;;30.87;;
10605;SDS011;5350;42.698;23.148;2022-11-15T07:53:07;328.13;;;31.77;;
10605;SDS011;5350;42.698;23.148;2022-11-15T07:55:35;228.27;;;30.90;;
10605;SDS011;5350;42.698;23.148;2022-11-15T07:58:02;567.27;;;39.63;;
10605;SDS011;5350;42.698;23.148;2022-11-15T08:00:29;308.73;;;34.93;;
10605;SDS011;5350;42.698;23.148;2022-11-15T08:03:03;193.17;;;30.17;;
10605;SDS011;5350;42.698;23.148;2022-11-15T08:05:31;243.93;;;30.40;;
10605;SDS011;5350;42.698;23.148;2022-11-15T08:07:58;231.67;;;30.07;;
10605;SDS011;5350;42.698;23.148;2022-11-15T08:10:25;221.27;;;31.47;;
10605;SDS011;5350;42.698;23.148;2022-11-15T08:12:56;432.37;;;34.50;;
10605;SDS011;5350;42.698;23.148;2022-11-15T08:15:24;128.97;;;27.87;;
10605;SDS011;5350;42.698;23.148;2022-11-15T08:17:53;91.20;;;27.80;;
10605;SDS011;5350;42.698;23.148;2022-11-15T08:20:20;160.13;;;28.50;;
10605;SDS011;5350;42.698;23.148;2022-11-15T08:22:48;80.70;;;27.20;;
10605;SDS011;5350;42.698;23.148;2022-11-15T08:25:15;156.47;;;27.60;;
10605;SDS011;5350;42.698;23.148;2022-11-15T08:27:42;103.77;;;28.07;;
10605;SDS011;5350;42.698;23.148;2022-11-15T08:30:09;208.80;;;30.83;;
10605;SDS011;5350;42.698;23.148;2022-11-15T08:32:37;129.80;;;29.87;;
10605;SDS011;5350;42.698;23.148;2022-11-15T08:35:05;101.30;;;30.47;;
10605;SDS011;5350;42.698;23.148;2022-11-15T08:37:32;65.40;;;27.10;;
10605;SDS011;5350;42.698;23.148;2022-11-15T08:40:00;94.07;;;27.27;;
10605;SDS011;5350;42.698;23.148;2022-11-15T08:42:27;191.83;;;29.10;;
10605;SDS011;5350;42.698;23.148;2022-11-15T08:44:54;91.10;;;27.70;;
10605;SDS011;5350;42.698;23.148;2022-11-15T08:47:20;115.27;;;27.80;;
10605;SDS011;5350;42.698;23.148;2022-11-15T08:49:47;60.93;;;29.37;;
10605;SDS011;5350;42.698;23.148;2022-11-15T08:52:14;75.23;;;26.60;;
10605;SDS011;5350;42.698;23.148;2022-11-15T08:54:40;81.03;;;25.30;;
10605;SDS011;5350;42.698;23.148;2022-11-15T08:57:09;100.03;;;25.73;;
10605;SDS011;5350;42.698;23.148;2022-11-15T08:59:35;88.73;;;27.10;;
10605;SDS011;5350;42.698;23.148;2022-11-15T09:02:02;63.53;;;25.83;;
10605;SDS011;5350;42.698;23.148;2022-11-15T09:04:29;74.03;;;26.23;;
10605;SDS011;5350;42.698;23.148;2022-11-15T09:06:56;76.20;;;26.17;;
10605;SDS011;5350;42.698;23.148;2022-11-15T09:09:24;61.40;;;26.77;;
10605;SDS011;5350;42.698;23.148;2022-11-15T09:11:50;123.03;;;25.87;;
10605;SDS011;5350;42.698;23.148;2022-11-15T09:14:18;136.30;;;26.17;;
10605;SDS011;5350;42.698;23.148;2022-11-15T09:16:45;83.80;;;25.30;;
10605;SDS011;5350;42.698;23.148;2022-11-15T09:19:12;68.83;;;26.03;;
10605;SDS011;5350;42.698;23.148;2022-11-15T09:21:39;51.60;;;25.37;;
10605;SDS011;5350;42.698;23.148;2022-11-15T09:24:06;74.80;;;24.17;;
10605;SDS011;5350;42.698;23.148;2022-11-15T09:26:33;44.57;;;24.93;;
10605;SDS011;5350;42.698;23.148;2022-11-15T09:29:00;48.97;;;27.27;;
10605;SDS011;5350;42.698;23.148;2022-11-15T09:31:28;48.13;;;25.30;;
10605;SDS011;5350;42.698;23.148;2022-11-15T09:33:55;43.87;;;24.67;;
10605;SDS011;5350;42.698;23.148;2022-11-15T09:36:22;57.73;;;24.67;;
10605;SDS011;5350;42.698;23.148;2022-11-15T09:38:49;55.83;;;23.50;;
10605;SDS011;5350;42.698;23.148;2022-11-15T09:41:22;40.33;;;24.57;;
10605;SDS011;5350;42.698;23.148;2022-11-15T09:44:04;45.20;;;25.23;;
10605;SDS011;5350;42.698;23.148;2022-11-15T09:46:44;46.93;;;24.47;;
10605;SDS011;5350;42.698;23.148;2022-11-15T09:49:17;43.47;;;24.53;;
10605;SDS011;5350;42.698;23.148;2022-11-15T09:51:45;43.13;;;25.50;;
10605;SDS011;5350;42.698;23.148;2022-11-15T09:54:21;39.10;;;24.53;;
10605;SDS011;5350;42.698;23.148;2022-11-15T09:56:55;53.13;;;25.57;;
10605;SDS011;5350;42.698;23.148;2022-11-15T09:59:34;45.83;;;24.83;;
10605;SDS011;5350;42.698;23.148;2022-11-15T10:02:15;41.47;;;25.07;;
10605;SDS011;5350;42.698;23.148;2022-11-15T10:04:53;53.50;;;24.30;;
10605;SDS011;5350;42.698;23.148;2022-11-15T10:07:21;47.13;;;25.17;;
10605;SDS011;5350;42.698;23.148;2022-11-15T10:09:53;47.63;;;24.57;;
10605;SDS011;5350;42.698;23.148;2022-11-15T10:12:23;44.50;;;25.83;;
10605;SDS011;5350;42.698;23.148;2022-11-15T10:14:54;45.97;;;25.17;;
10605;SDS011;5350;42.698;23.148;2022-11-15T10:17:33;48.07;;;27.47;;
10605;SDS011;5350;42.698;23.148;2022-11-15T10:20:26;45.47;;;27.57;;
10605;SDS011;5350;42.698;23.148;2022-11-15T10:22:55;45.70;;;27.80;;
10605;SDS011;5350;42.698;23.148;2022-11-15T10:25:26;47.87;;;28.87;;
10605;SDS011;5350;42.698;23.148;2022-11-15T10:27:55;50.60;;;30.27;;
10605;SDS011;5350;42.698;23.148;2022-11-15T10:30:23;47.13;;;28.73;;
10605;SDS011;5350;42.698;23.148;2022-11-15T10:32:57;51.77;;;30.47;;
10605;SDS011;5350;42.698;23.148;2022-11-15T10:35:34;53.83;;;30.37;;
10605;SDS011;5350;42.698;23.148;2022-11-15T10:38:05;51.17;;;29.90;;
10605;SDS011;5350;42.698;23.148;2022-11-15T10:40:32;50.97;;;31.20;;
10605;SDS011;5350;42.698;23.148;2022-11-15T10:43:12;50.37;;;31.00;;
10605;SDS011;5350;42.698;23.148;2022-11-15T10:45:42;50.10;;;29.97;;
10605;SDS011;5350;42.698;23.148;2022-11-15T10:48:23;54.00;;;30.33;;
10605;SDS011;5350;42.698;23.148;2022-11-15T10:50:51;56.50;;;31.43;;
10605;SDS011;5350;42.698;23.148;2022-11-15T10:53:21;55.33;;;32.37;;
10605;SDS011;5350;42.698;23.148;2022-11-15T10:55:57;58.43;;;34.00;;
10605;SDS011;5350;42.698;23.148;2022-11-15T10:58:32;56.63;;;33.33;;
10605;SDS011;5350;42.698;23.148;2022-11-15T11:01:13;64.23;;;35.90;;
10605;SDS011;5350;42.698;23.148;2022-11-15T11:03:43;64.13;;;37.13;;
10605;SDS011;5350;42.698;23.148;2022-11-15T11:06:12;69.23;;;41.07;;
10605;SDS011;5350;42.698;23.148;2022-11-15T11:08:41;70.43;;;39.73;;
10605;SDS011;5350;42.698;23.148;2022-11-15T11:11:20;72.40;;;40.33;;
10605;SDS011;5350;42.698;23.148;2022-11-15T11:13:47;69.33;;;41.33;;
10605;SDS011;5350;42.698;23.148;2022-11-15T11:16:19;78.03;;;43.13;;
10605;SDS011;5350;42.698;23.148;2022-11-15T11:18:56;78.50;;;42.43;;
10605;SDS011;5350;42.698;23.148;2022-11-15T11:21:31;70.83;;;43.67;;
10605;SDS011;5350;42.698;23.148;2022-11-15T11:24:08;74.13;;;41.17;;
10605;SDS011;5350;42.698;23.148;2022-11-15T11:26:42;66.63;;;41.37;;
10605;SDS011;5350;42.698;23.148;2022-11-15T11:29:20;70.03;;;39.47;;
10605;SDS011;5350;42.698;23.148;2022-11-15T11:31:58;65.60;;;40.23;;
10605;SDS011;5350;42.698;23.148;2022-11-15T11:34:37;76.97;;;43.87;;
10605;SDS011;5350;42.698;23.148;2022-11-15T11:37:17;71.27;;;43.67;;
10605;SDS011;5350;42.698;23.148;2022-11-15T11:39:53;105.03;;;57.50;;
10605;SDS011;5350;42.698;23.148;2022-11-15T11:42:30;95.73;;;53.27;;
10605;SDS011;5350;42.698;23.148;2022-11-15T11:45:10;106.87;;;56.73;;
10605;SDS011;5350;42.698;23.148;2022-11-15T11:47:46;93.33;;;54.83;;
10605;SDS011;5350;42.698;23.148;2022-11-15T11:50:18;92.00;;;52.87;;
10605;SDS011;5350;42.698;23.148;2022-11-15T11:52:52;85.17;;;50.87;;
10605;SDS011;5350;42.698;23.148;2022-11-15T11:55:24;86.43;;;51.97;;
10605;SDS011;5350;42.698;23.148;2022-11-15T11:57:58;88.50;;;52.25;;
10605;SDS011;5350;42.698;23.148;2022-11-15T12:00:31;86.70;;;52.00;;
10605;SDS011;5350;42.698;23.148;2022-11-15T12:03:03;83.32;;;50.92;;
10605;SDS011;5350;42.698;23.148;2022-11-15T12:05:37;94.53;;;54.72;;
10605;SDS011;5350;42.698;23.148;2022-11-15T12:08:14;88.65;;;53.75;;
10605;SDS011;5350;42.698;23.148;2022-11-15T12:10:50;109.97;;;59.00;;
10605;SDS011;5350;42.698;23.148;2022-11-15T12:13:25;111.20;;;60.13;;
10605;SDS011;5350;42.698;23.148;2022-11-15T12:15:59;100.93;;;59.03;;
10605;SDS011;5350;42.698;23.148;2022-11-15T12:18:31;102.03;;;58.85;;
10605;SDS011;5350;42.698;23.148;2022-11-15T12:21:01;110.32;;;61.67;;
10605;SDS011;5350;42.698;23.148;2022-11-15T12:23:37;103.45;;;61.95;;
10605;SDS011;5350;42.698;23.148;2022-11-15T12:26:06;109.13;;;63.53;;
10605;SDS011;5350;42.698;23.148;2022-11-15T12:28:38;112.80;;;63.55;;
10605;SDS011;5350;42.698;23.148;2022-11-15T12:31:11;111.88;;;64.65;;
10605;SDS011;5350;42.698;23.148;2022-11-15T12:33:43;119.40;;;67.78;;
10605;SDS011;5350;42.698;23.148;2022-11-15T12:36:16;111.95;;;66.85;;
10605;SDS011;5350;42.698;23.148;2022-11-15T12:39:00;112.35;;;64.30;;
10605;SDS011;5350;42.698;23.148;2022-11-15T12:41:28;114.05;;;66.90;;
10605;SDS011;5350;42.698;23.148;2022-11-15T12:43:56;109.45;;;66.65;;
10605;SDS011;5350;42.698;23.148;2022-11-15T12:52:13;109.85;;;67.38;;
10605;SDS011;5350;42.698;23.148;2022-11-15T12:57:50;102.85;;;64.00;;
10605;SDS011;5350;42.698;23.148;2022-11-15T13:05:58;103.70;;;61.85;;
10605;SDS011;5350;42.698;23.148;2022-11-15T13:08:45;104.68;;;61.45;;
10605;SDS011;5350;42.698;23.148;2022-11-15T13:17:22;100.03;;;57.65;;
10605;SDS011;5350;42.698;23.148;2022-11-15T13:19:53;94.22;;;58.78;;
10605;SDS011;5350;42.698;23.148;2022-11-15T13:22:24;93.18;;;58.97;;
10605;SDS011;5350;42.698;23.148;2022-11-15T13:25:16;91.40;;;58.97;;
10605;SDS011;5350;42.698;23.148;2022-11-15T13:27:47;85.10;;;55.65;;
10605;SDS011;5350;42.698;23.148;2022-11-15T13:30:20;85.78;;;55.60;;
10605;SDS011;5350;42.698;23.148;2022-11-15T13:32:48;85.22;;;55.35;;
10605;SDS011;5350;42.698;23.148;2022-11-15T13:35:18;91.28;;;55.38;;
10605;SDS011;5350;42.698;23.148;2022-11-15T13:37:49;82.80;;;54.17;;
10605;SDS011;5350;42.698;23.148;2022-11-15T13:40:23;78.10;;;54.40;;
10605;SDS011;5350;42.698;23.148;2022-11-15T13:42:52;82.80;;;53.22;;
10605;SDS011;5350;42.698;23.148;2022-11-15T13:45:20;77.50;;;51.70;;
10605;SDS011;5350;42.698;23.148;2022-11-15T13:47:50;78.13;;;53.30;;
10605;SDS011;5350;42.698;23.148;2022-11-15T13:50:20;74.53;;;50.90;;
10605;SDS011;5350;42.698;23.148;2022-11-15T13:52:48;80.13;;;52.25;;
10605;SDS011;5350;42.698;23.148;2022-11-15T13:55:16;77.97;;;53.90;;
10605;SDS011;5350;42.698;23.148;2022-11-15T13:57:46;82.35;;;53.72;;
10605;SDS011;5350;42.698;23.148;2022-11-15T14:00:26;75.85;;;51.10;;
10605;SDS011;5350;42.698;23.148;2022-11-15T14:03:04;78.53;;;53.85;;
10605;SDS011;5350;42.698;23.148;2022-11-15T14:05:33;72.70;;;50.70;;
10605;SDS011;5350;42.698;23.148;2022-11-15T14:08:01;76.50;;;51.75;;
10605;SDS011;5350;42.698;23.148;2022-11-15T14:10:30;75.93;;;50.45;;
10605;SDS011;5350;42.698;23.148;2022-11-15T14:13:00;74.78;;;50.55;;
10605;SDS011;5350;42.698;23.148;2022-11-15T14:15:28;72.85;;;49.65;;
10605;SDS011;5350;42.698;23.148;2022-11-15T14:17:57;72.45;;;48.90;;
10605;SDS011;5350;42.698;23.148;2022-11-15T14:20:28;71.47;;;48.63;;
10605;SDS011;5350;42.698;23.148;2022-11-15T14:22:58;73.40;;;49.33;;
10605;SDS011;5350;42.698;23.148;2022-11-15T14:25:26;72.80;;;47.63;;
10605;SDS011;5350;42.698;23.148;2022-11-15T14:28:15;73.00;;;46.50;;
10605;SDS011;5350;42.698;23.148;2022-11-15T14:30:55;70.57;;;47.10;;
10605;SDS011;5350;42.698;23.148;2022-11-15T14:33:24;68.60;;;46.92;;
10605;SDS011;5350;42.698;23.148;2022-11-15T14:35:54;74.20;;;48.42;;
10605;SDS011;5350;42.698;23.148;2022-11-15T14:38:22;83.93;;;50.07;;
10605;SDS011;5350;42.698;23.148;2022-11-15T14:40:49;82.93;;;51.30;;
10605;SDS011;5350;42.698;23.148;2022-11-15T14:43:18;78.07;;;51.90;;
10605;SDS011;5350;42.698;23.148;2022-11-15T14:45:44;77.27;;;49.70;;
10605;SDS011;5350;42.698;23.148;2022-11-15T14:48:11;73.60;;;49.57;;
10605;SDS011;5350;42.698;23.148;2022-11-15T14:50:38;81.37;;;51.07;;
10605;SDS011;5350;42.698;23.148;2022-11-15T14:53:05;82.00;;;52.30;;
10605;SDS011;5350;42.698;23.148;2022-11-15T14:55:32;76.37;;;49.53;;
10605;SDS011;5350;42.698;23.148;2022-11-15T14:58:01;74.70;;;49.87;;